Time;durP1;ratioP1;P1;durP2;ratioP2;P2;SDS_P1;SDS_P2;PMS_P1;PMS_P2;Temp;Humidity;BMP_temperature;BMP_pressure;BME280_temperature;BME280_humidity;BME280_pressure;Samples;Min_cycle;Max_cycle;Signal;HPM_P1;HPM_P2
2022/12/23 00:00:42;;;;;;;28.95;17.73;;;;;;;6.48;100.00;99700.06;4998348;28;20057;-64
2022/12/23 00:03:09;;;;;;;26.65;16.40;;;;;;;6.43;100.00;99690.78;4995304;28;20142;-64
2022/12/23 00:05:38;;;;;;;21.98;15.10;;;;;;;6.39;100.00;99682.28;4986629;28;20233;-65
2022/12/23 00:08:06;;;;;;;25.50;16.27;;;;;;;6.43;100.00;99681.19;5005622;28;20510;-64
2022/12/23 00:10:34;;;;;;;23.65;16.23;;;;;;;6.45;100.00;99683.72;4998906;28;20392;-64
2022/12/23 00:15:47;;;;;;;20.15;14.80;;;;;;;6.44;100.00;99671.56;5000181;28;20046;-63
2022/12/23 00:18:15;;;;;;;23.90;15.75;;;;;;;6.47;100.00;99676.63;4994361;28;20051;-62
2022/12/23 00:20:42;;;;;;;19.98;15.55;;;;;;;6.50;100.00;99677.28;5008960;28;20058;-63
2022/12/23 00:23:09;;;;;;;23.35;16.05;;;;;;;6.52;100.00;99666.75;4995763;28;20156;-63
2022/12/23 00:25:41;;;;;;;21.05;15.07;;;;;;;6.52;100.00;99667.56;4998227;28;20141;-63
2022/12/23 00:28:11;;;;;;;23.92;17.05;;;;;;;6.53;100.00;99660.59;4999372;28;20137;-64
2022/12/23 00:30:52;;;;;;;21.65;14.93;;;;;;;6.54;100.00;99662.28;4994063;28;20043;-63
2022/12/23 00:33:21;;;;;;;20.60;16.23;;;;;;;6.55;100.00;99658.72;5002374;28;20048;-63
2022/12/23 00:35:49;;;;;;;24.90;16.00;;;;;;;6.57;100.00;99656.84;4991545;28;20130;-64
2022/12/23 00:42:52;;;;;;;22.40;15.98;;;;;;;6.55;100.00;99658.72;4990929;28;20414;-64
2022/12/23 00:43:57;;;;;;;22.63;15.43;;;;;;;6.53;100.00;99639.69;4991576;28;20454;-63
2022/12/23 00:46:25;;;;;;;25.17;16.75;;;;;;;6.55;100.00;99643.03;4995122;28;20054;-63
2022/12/23 00:51:38;;;;;;;24.38;15.68;;;;;;;6.56;100.00;99640.31;4998129;28;20553;-63
2022/12/23 00:54:06;;;;;;;19.60;14.63;;;;;;;6.58;100.00;99637.63;4963730;28;20133;-64
2022/12/23 00:56:33;;;;;;;20.58;15.93;;;;;;;6.59;100.00;99634.94;5004656;28;20549;-63
2022/12/23 00:59:00;;;;;;;22.67;16.23;;;;;;;6.60;100.00;99636.59;4996074;28;20494;-64
2022/12/23 01:07:00;;;;;;;23.83;15.25;;;;;;;6.61;100.00;99637.44;4991569;28;20350;-64
2022/12/23 01:09:27;;;;;;;21.65;15.25;;;;;;;6.60;100.00;99628.75;4997239;28;20058;-64
2022/12/23 01:11:54;;;;;;;23.08;15.80;;;;;;;6.59;100.00;99624.47;5001755;28;20128;-64
2022/12/23 01:14:21;;;;;;;23.52;15.38;;;;;;;6.60;100.00;99615.69;4999057;28;20046;-64
2022/12/23 01:16:49;;;;;;;22.42;15.27;;;;;;;6.60;100.00;99620.91;5003777;28;20056;-64
2022/12/23 01:19:16;;;;;;;25.27;16.83;;;;;;;6.53;100.00;99617.00;5003335;28;20605;-64
2022/12/23 01:21:43;;;;;;;25.05;16.90;;;;;;;6.48;100.00;99624.22;5005018;28;20060;-64
2022/12/23 01:24:10;;;;;;;23.75;17.55;;;;;;;6.46;100.00;99626.09;4996009;28;20135;-64
2022/12/23 01:26:37;;;;;;;22.00;15.80;;;;;;;6.51;100.00;99631.06;5000139;28;20052;-64
2022/12/23 01:29:04;;;;;;;25.85;17.85;;;;;;;6.54;100.00;99625.66;4995727;28;20081;-63
2022/12/23 01:31:32;;;;;;;28.90;18.45;;;;;;;6.49;100.00;99625.09;5003749;28;20150;-62
2022/12/23 01:33:59;;;;;;;24.35;16.88;;;;;;;6.45;100.00;99627.03;4995485;28;20046;-64
2022/12/23 01:36:26;;;;;;;29.38;18.17;;;;;;;6.50;100.00;99614.53;4994519;28;20137;-64
2022/12/23 01:38:55;;;;;;;29.27;18.27;;;;;;;6.55;100.00;99620.34;4995993;28;20464;-64
2022/12/23 01:44:47;;;;;;;25.58;18.15;;;;;;;6.61;100.00;99608.69;4995654;28;20105;-64
2022/12/23 01:47:45;;;;;;;23.83;17.08;;;;;;;6.62;100.00;99609.50;4990703;28;20607;-64
2022/12/23 01:50:20;;;;;;;27.30;17.00;;;;;;;6.61;100.00;99608.69;4987258;28;20108;-63
2022/12/23 01:53:09;;;;;;;23.88;16.92;;;;;;;6.58;100.00;99603.66;4985411;28;20050;-64
2022/12/23 01:55:49;;;;;;;24.48;16.83;;;;;;;6.58;100.00;99607.09;4974617;28;20047;-63
2022/12/23 01:58:26;;;;;;;28.20;17.80;;;;;;;6.60;100.00;99607.84;4994886;28;20540;-64
2022/12/23 02:03:41;;;;;;;26.75;17.98;;;;;;;6.63;100.00;99598.16;4979338;28;20444;-64
2022/12/23 02:09:24;;;;;;;29.75;18.02;;;;;;;6.63;100.00;99590.31;4981855;28;20054;-64
2022/12/23 02:11:57;;;;;;;23.10;17.15;;;;;;;6.64;100.00;99586.75;4988462;28;20426;-63
2022/12/23 02:17:56;;;;;;;27.95;17.55;;;;;;;6.59;100.00;99587.84;5001408;28;20046;-63
2022/12/23 02:20:31;;;;;;;23.95;16.45;;;;;;;6.60;100.00;99584.31;5000122;28;20046;-64
2022/12/23 02:23:17;;;;;;;23.90;17.23;;;;;;;6.61;100.00;99579.91;4992627;28;20076;-64
2022/12/23 02:26:02;;;;;;;26.50;18.33;;;;;;;6.60;100.00;99583.47;4994048;28;20471;-64
2022/12/23 02:28:38;;;;;;;28.75;19.15;;;;;;;6.59;100.00;99580.00;5003596;28;20511;-64
2022/12/23 02:31:10;;;;;;;27.17;18.30;;;;;;;6.60;100.00;99570.38;4992847;28;20469;-64
2022/12/23 02:33:49;;;;;;;29.20;18.88;;;;;;;6.62;100.00;99567.66;4980138;28;20047;-64
2022/12/23 02:36:48;;;;;;;28.30;16.92;;;;;;;6.60;100.00;99559.94;5001456;28;20482;-63
2022/12/23 02:39:36;;;;;;;24.13;17.80;;;;;;;6.59;100.00;99563.47;4976488;28;20043;-64
2022/12/23 02:42:11;;;;;;;26.40;18.25;;;;;;;6.58;100.00;99560.03;4988475;28;20142;-64
2022/12/23 02:44:43;;;;;;;27.50;18.17;;;;;;;6.59;100.00;99547.78;4993306;28;20149;-64
2022/12/23 02:47:13;;;;;;;22.73;17.20;;;;;;;6.59;100.00;99547.78;4991387;28;20129;-64
2022/12/23 02:49:44;;;;;;;26.98;17.60;;;;;;;6.58;100.00;99544.34;4977100;28;20057;-64
2022/12/23 02:52:17;;;;;;;26.23;18.58;;;;;;;6.59;100.00;99545.19;4979005;28;20054;-64
2022/12/23 02:54:49;;;;;;;27.77;18.73;;;;;;;6.58;100.00;99540.88;4996110;28;20108;-63
2022/12/23 02:57:19;;;;;;;29.02;18.95;;;;;;;6.58;100.00;99539.13;4980162;28;20054;-62
2022/12/23 02:59:49;;;;;;;33.20;19.50;;;;;;;6.58;100.00;99539.13;4994607;28;20533;-64
2022/12/23 03:02:17;;;;;;;28.58;18.77;;;;;;;6.59;100.00;99532.09;4990514;28;20061;-63
2022/12/23 03:04:45;;;;;;;34.30;19.80;;;;;;;6.58;100.00;99527.81;4975047;28;20133;-63
2022/12/23 03:07:16;;;;;;;28.02;19.20;;;;;;;6.58;100.00;99526.03;4995589;28;20046;-64
2022/12/23 03:09:58;;;;;;;27.10;18.77;;;;;;;6.57;100.00;99521.75;4987823;28;20138;-63
2022/12/23 03:12:48;;;;;;;26.73;18.17;;;;;;;6.57;100.00;99518.25;4996321;28;20136;-64
2022/12/23 03:15:34;;;;;;;28.50;18.15;;;;;;;6.55;100.00;99513.13;4980823;28;20137;-64
2022/12/23 03:18:11;;;;;;;25.73;18.27;;;;;;;6.57;100.00;99518.25;4991754;28;20049;-64
2022/12/23 03:20:45;;;;;;;29.42;19.17;;;;;;;6.56;100.00;99511.34;4978470;28;20137;-63
2022/12/23 03:23:19;;;;;;;29.38;17.70;;;;;;;6.56;100.00;99517.44;4977468;28;20058;-62
2022/12/23 03:26:01;;;;;;;24.30;17.58;;;;;;;6.58;100.00;99520.81;4995154;28;20058;-63
2022/12/23 03:28:37;;;;;;;25.55;17.20;;;;;;;6.56;100.00;99519.19;4976139;28;20089;-64
2022/12/23 03:31:08;;;;;;;25.77;18.02;;;;;;;6.56;100.00;99517.44;4988776;28;20061;-64
2022/12/23 03:33:39;;;;;;;23.05;16.77;;;;;;;6.57;100.00;99516.53;4970765;28;20145;-64
2022/12/23 03:36:19;;;;;;;22.90;16.38;;;;;;;6.58;100.00;99522.59;4970884;28;20114;-64
2022/12/23 03:38:47;;;;;;;25.38;17.15;;;;;;;6.58;100.00;99515.56;5000081;28;20058;-63
2022/12/23 03:41:26;;;;;;;22.58;16.42;;;;;;;6.61;100.00;99511.91;4986382;28;20129;-63
2022/12/23 03:44:09;;;;;;;24.92;17.05;;;;;;;6.59;100.00;99508.56;4978978;28;20082;-63
2022/12/23 03:46:43;;;;;;;22.75;16.60;;;;;;;6.60;100.00;99502.41;4999523;28;20056;-63
2022/12/23 03:49:25;;;;;;;22.85;16.60;;;;;;;6.59;100.00;99500.72;4996551;28;20128;-63
2022/12/23 03:51:57;;;;;;;26.25;17.23;;;;;;;6.60;100.00;99495.41;4979566;28;20522;-63
2022/12/23 03:54:29;;;;;;;26.80;19.17;;;;;;;6.62;100.00;99499.69;4980933;28;20068;-63
2022/12/23 03:57:01;;;;;;;26.15;18.10;;;;;;;6.63;100.00;99499.59;4991790;28;20057;-64
2022/12/23 03:59:38;;;;;;;24.92;18.23;;;;;;;6.63;100.00;99496.16;4991394;28;20054;-64
2022/12/23 04:02:14;;;;;;;27.20;18.05;;;;;;;6.64;100.00;99490.81;5004363;28;20137;-64
2022/12/23 04:05:00;;;;;;;27.02;17.60;;;;;;;6.64;100.00;99490.81;4981119;28;20145;-64
2022/12/23 04:07:41;;;;;;;26.75;18.90;;;;;;;6.64;100.00;99484.75;4995121;28;20060;-64
2022/12/23 04:10:09;;;;;;;27.40;17.67;;;;;;;6.65;100.00;99491.66;4973064;28;20508;-64
2022/12/23 04:12:36;;;;;;;28.45;19.08;;;;;;;6.65;100.00;99491.66;4981218;28;20061;-64
2022/12/23 04:15:04;;;;;;;25.90;18.30;;;;;;;6.64;100.00;99490.81;4996925;28;20149;-64
2022/12/23 04:17:39;;;;;;;26.23;17.58;;;;;;;6.65;100.00;99491.66;4996345;28;20143;-64
2022/12/23 04:20:06;;;;;;;23.92;17.65;;;;;;;6.67;100.00;99489.81;4992587;28;20130;-63
2022/12/23 04:22:35;;;;;;;25.52;17.38;;;;;;;6.67;100.00;99485.41;4995118;28;20054;-63
2022/12/23 04:25:02;;;;;;;24.95;17.58;;;;;;;6.67;100.00;99480.19;4987128;28;20145;-63
2022/12/23 04:27:29;;;;;;;26.67;17.33;;;;;;;6.68;100.00;99486.25;4982468;28;20055;-65
2022/12/23 04:29:56;;;;;;;23.98;17.10;;;;;;;6.71;100.00;99472.97;4988631;28;20410;-64
2022/12/23 04:32:23;;;;;;;25.92;17.90;;;;;;;6.71;100.00;99484.28;4987293;28;20058;-64
2022/12/23 04:34:50;;;;;;;26.25;18.98;;;;;;;6.72;100.00;99477.28;4965239;28;20050;-64
2022/12/23 04:37:18;;;;;;;25.65;18.05;;;;;;;6.72;100.00;99482.53;4991348;28;20038;-64
2022/12/23 04:39:45;;;;;;;28.45;18.85;;;;;;;6.71;100.00;99481.69;4994219;28;20455;-65
2022/12/23 04:42:12;;;;;;;26.83;18.50;;;;;;;6.74;100.00;99480.63;4986142;28;20073;-65
2022/12/23 04:44:39;;;;;;;25.02;18.30;;;;;;;6.73;100.00;99479.81;4995494;28;20422;-64
2022/12/23 04:47:06;;;;;;;29.08;19.50;;;;;;;6.74;100.00;99478.03;4979250;28;20133;-64
2022/12/23 04:49:34;;;;;;;25.80;18.55;;;;;;;6.73;100.00;99474.56;4987079;28;20050;-65
2022/12/23 04:52:01;;;;;;;27.63;17.92;;;;;;;6.71;100.00;99476.44;4995541;28;20651;-63
2022/12/23 04:54:28;;;;;;;29.98;20.25;;;;;;;6.74;100.00;99472.78;5001659;28;20049;-66
2022/12/23 04:56:55;;;;;;;29.25;18.67;;;;;;;6.74;100.00;99471.00;4996195;28;20123;-64
2022/12/23 04:59:22;;;;;;;24.90;17.10;;;;;;;6.74;100.00;99473.63;4994920;28;20137;-65
2022/12/23 05:01:49;;;;;;;27.83;18.88;;;;;;;6.76;100.00;99473.56;4983389;28;20046;-64
2022/12/23 05:04:17;;;;;;;25.70;16.58;;;;;;;6.74;100.00;99472.78;4995780;28;20046;-64
2022/12/23 05:06:44;;;;;;;27.38;18.30;;;;;;;6.76;100.00;99474.38;4978756;28;20142;-63
2022/12/23 05:09:11;;;;;;;26.25;17.38;;;;;;;6.77;100.00;99472.59;4995240;28;20410;-65
2022/12/23 05:11:38;;;;;;;26.73;18.10;;;;;;;6.77;100.00;99473.44;4987038;28;20055;-64
2022/12/23 05:14:09;;;;;;;29.05;18.15;;;;;;;6.78;100.00;99472.50;4995115;28;20507;-65
2022/12/23 05:16:37;;;;;;;28.35;17.85;;;;;;;6.77;100.00;99475.22;4996135;28;20125;-64
2022/12/23 05:19:05;;;;;;;22.67;16.75;;;;;;;6.73;100.00;99478.97;4996091;28;20063;-64
2022/12/23 05:21:32;;;;;;;24.95;17.42;;;;;;;6.73;100.00;99474.56;4998729;28;20531;-64
2022/12/23 05:23:59;;;;;;;27.23;17.73;;;;;;;6.76;100.00;99482.25;4988684;28;20133;-64
2022/12/23 05:26:26;;;;;;;25.60;17.88;;;;;;;6.76;100.00;99484.00;4995607;28;20051;-64
2022/12/23 05:28:54;;;;;;;26.75;17.83;;;;;;;6.78;100.00;99479.50;4994683;28;20063;-64
2022/12/23 05:31:21;;;;;;;27.75;18.10;;;;;;;6.76;100.00;99479.63;4996159;28;20427;-64
2022/12/23 05:33:48;;;;;;;28.38;18.80;;;;;;;6.77;100.00;99472.59;5004860;28;20050;-65
2022/12/23 05:36:15;;;;;;;26.52;17.60;;;;;;;6.76;100.00;99473.56;5001252;28;20050;-65
2022/12/23 05:38:42;;;;;;;24.92;16.85;;;;;;;6.76;100.00;99468.31;5000367;28;20050;-65
2022/12/23 05:41:10;;;;;;;25.60;17.23;;;;;;;6.75;100.00;99467.44;5007556;28;20129;-64
2022/12/23 05:43:37;;;;;;;27.05;18.48;;;;;;;6.76;100.00;99471.78;5002507;28;20068;-66
2022/12/23 05:46:04;;;;;;;24.45;15.73;;;;;;;6.76;100.00;99477.00;5003828;28;20532;-65
2022/12/23 05:48:31;;;;;;;24.05;17.40;;;;;;;6.78;100.00;99482.13;5001472;28;20058;-65
2022/12/23 05:50:58;;;;;;;25.20;16.17;;;;;;;6.73;100.00;99479.81;4995009;28;20395;-65
2022/12/23 05:53:26;;;;;;;25.30;16.95;;;;;;;6.72;100.00;99479.91;4996886;28;20053;-62
2022/12/23 05:55:53;;;;;;;22.63;16.52;;;;;;;6.71;100.00;99481.69;4985284;28;20468;-66
2022/12/23 05:58:20;;;;;;;21.77;15.80;;;;;;;6.75;100.00;99482.31;5002014;28;20465;-65
2022/12/23 06:00:47;;;;;;;23.42;16.30;;;;;;;6.76;100.00;99474.38;4995867;28;20056;-65
2022/12/23 06:03:14;;;;;;;22.67;15.90;;;;;;;6.79;100.00;99476.78;5006335;28;20491;-64
2022/12/23 06:05:42;;;;;;;25.50;15.55;;;;;;;6.81;100.00;99474.94;5004251;28;20157;-65
2022/12/23 06:08:10;;;;;;;22.70;15.25;;;;;;;6.78;100.00;99488.19;5000485;28;20077;-65
2022/12/23 06:10:37;;;;;;;21.35;15.02;;;;;;;6.75;100.00;99491.00;5002096;28;20379;-65
2022/12/23 06:13:04;;;;;;;25.42;16.42;;;;;;;6.75;100.00;99484.94;4992380;28;20141;-65
2022/12/23 06:15:31;;;;;;;22.83;16.25;;;;;;;6.75;100.00;99488.38;4995918;28;20058;-66
2022/12/23 06:17:58;;;;;;;23.02;16.73;;;;;;;6.74;100.00;99478.84;5002358;28;20129;-64
2022/12/23 06:20:25;;;;;;;23.05;15.90;;;;;;;6.73;100.00;99486.81;5011233;28;20132;-64
2022/12/23 06:22:53;;;;;;;26.00;16.92;;;;;;;6.76;100.00;99502.31;4998028;28;20478;-64
2022/12/23 06:25:20;;;;;;;23.45;16.58;;;;;;;6.77;100.00;99497.00;4988410;28;20073;-66
2022/12/23 06:27:47;;;;;;;23.83;15.60;;;;;;;6.79;100.00;99504.72;4997288;28;20054;-65
2022/12/23 06:30:14;;;;;;;22.50;14.70;;;;;;;6.82;100.00;99510.63;4989911;28;20046;-66
2022/12/23 06:32:41;;;;;;;21.58;15.13;;;;;;;6.86;100.00;99513.91;4999221;28;20524;-66
2022/12/23 06:35:09;;;;;;;24.50;16.67;;;;;;;6.88;100.00;99509.41;4979128;28;20205;-65
2022/12/23 06:37:36;;;;;;;22.75;15.73;;;;;;;6.87;100.00;99517.34;4997942;28;20233;-66
2022/12/23 06:40:04;;;;;;;23.38;16.33;;;;;;;6.89;100.00;99516.34;5001671;28;20141;-64
2022/12/23 06:42:31;;;;;;;23.05;15.88;;;;;;;6.85;100.00;99520.06;5002078;28;20152;-65
2022/12/23 06:44:58;;;;;;;21.77;15.70;;;;;;;6.85;100.00;99523.53;4991135;28;20045;-65
2022/12/23 06:47:25;;;;;;;21.42;14.48;;;;;;;6.89;100.00;99532.03;4990482;28;20045;-65
2022/12/23 06:49:53;;;;;;;24.17;17.33;;;;;;;6.89;100.00;99536.41;4991266;28;20049;-65
2022/12/23 06:52:21;;;;;;;24.88;16.10;;;;;;;6.92;100.00;99539.66;4987995;28;20050;-65
2022/12/23 06:54:49;;;;;;;23.17;16.52;;;;;;;6.93;100.00;99538.72;5006422;28;20477;-64
2022/12/23 06:57:16;;;;;;;21.33;15.57;;;;;;;6.94;100.00;99542.22;4992035;28;20141;-64
2022/12/23 06:59:43;;;;;;;27.55;19.48;;;;;;;6.93;100.00;99548.34;5008086;28;20061;-65
2022/12/23 07:02:10;;;;;;;25.92;17.92;;;;;;;6.88;100.00;99547.81;4997181;28;20144;-65
2022/12/23 07:04:38;;;;;;;29.17;19.15;;;;;;;6.90;100.00;99540.72;4973900;28;20062;-65
2022/12/23 07:07:05;;;;;;;23.88;17.70;;;;;;;6.90;100.00;99546.78;4992545;28;20078;-64
2022/12/23 07:09:32;;;;;;;30.92;18.35;;;;;;;6.91;100.00;99547.63;5000089;28;20366;-65
2022/12/23 07:12:01;;;;;;;24.33;16.80;;;;;;;6.89;100.00;99550.34;4999704;28;20053;-65
2022/12/23 07:14:28;;;;;;;25.80;16.63;;;;;;;6.87;100.00;99556.59;4999434;28;20062;-65
2022/12/23 07:16:56;;;;;;;23.25;16.27;;;;;;;6.92;100.00;99557.16;4997475;28;20110;-65
2022/12/23 07:19:23;;;;;;;21.48;16.02;;;;;;;6.85;100.00;99561.94;4991337;28;20043;-64
2022/12/23 07:21:50;;;;;;;25.33;15.43;;;;;;;6.84;100.00;99558.47;5002690;28;20081;-65
2022/12/23 07:24:17;;;;;;;23.80;16.42;;;;;;;6.83;100.00;99554.16;4997127;28;20056;-64
2022/12/23 07:26:44;;;;;;;22.77;14.68;;;;;;;6.85;100.00;99561.94;4994985;28;20046;-65
2022/12/23 07:29:11;;;;;;;25.90;16.40;;;;;;;6.90;100.00;99564.25;4989770;28;20053;-65
2022/12/23 07:31:38;;;;;;;25.08;15.35;;;;;;;6.86;100.00;99568.84;4990740;28;20144;-65
2022/12/23 07:34:08;;;;;;;21.50;14.45;;;;;;;6.86;100.00;99571.44;5004658;28;20385;-65
2022/12/23 07:36:35;;;;;;;24.00;15.45;;;;;;;6.88;100.00;99572.19;4994257;28;20050;-65
2022/12/23 07:39:02;;;;;;;24.35;15.45;;;;;;;6.85;100.00;99570.63;4999133;28;20038;-65
2022/12/23 07:41:30;;;;;;;23.90;15.05;;;;;;;6.84;100.00;99568.94;4992886;28;20406;-65
2022/12/23 07:43:57;;;;;;;26.27;15.77;;;;;;;6.84;100.00;99573.31;5004316;28;20050;-65
2022/12/23 07:46:24;;;;;;;28.23;14.90;;;;;;;6.84;100.00;99574.16;4992920;28;20130;-64
2022/12/23 07:48:51;;;;;;;30.15;15.98;;;;;;;6.80;100.00;99574.44;4980755;28;20062;-64
2022/12/23 07:51:18;;;;;;;25.65;14.93;;;;;;;6.81;100.00;99581.34;5003782;28;20144;-64
2022/12/23 07:53:49;;;;;;;26.02;14.30;;;;;;;6.81;100.00;99576.97;4990310;28;20056;-64
2022/12/23 07:56:17;;;;;;;31.55;15.18;;;;;;;6.83;100.00;99579.47;4993503;28;20042;-65
2022/12/23 07:58:51;;;;;;;21.92;13.25;;;;;;;6.87;100.00;99586.22;4997026;28;20406;-64
2022/12/23 08:01:19;;;;;;;23.08;13.25;;;;;;;6.86;100.00;99589.75;5001273;28;20054;-64
2022/12/23 08:03:46;;;;;;;25.30;13.02;;;;;;;6.79;100.00;99589.28;5003143;28;20535;-65
2022/12/23 08:06:14;;;;;;;22.08;12.55;;;;;;;6.76;100.00;99589.47;5001659;28;20108;-65
2022/12/23 08:08:44;;;;;;;25.25;13.68;;;;;;;6.77;100.00;99596.38;4989134;28;20206;-65
2022/12/23 08:11:13;;;;;;;28.00;13.82;;;;;;;6.74;100.00;99611.41;4994728;28;20158;-65
2022/12/23 08:13:43;;;;;;;31.50;14.43;;;;;;;6.78;100.00;99610.31;4990453;28;20140;-65
2022/12/23 08:16:11;;;;;;;26.17;13.80;;;;;;;6.73;100.00;99607.13;4992747;28;20422;-64
2022/12/23 08:18:39;;;;;;;27.60;14.35;;;;;;;6.67;100.00;99608.34;5000808;28;20054;-63
2022/12/23 08:21:13;;;;;;;28.88;15.43;;;;;;;6.67;100.00;99620.56;4994929;28;20525;-63
2022/12/23 08:23:42;;;;;;;28.33;14.13;;;;;;;6.71;100.00;99619.44;5005651;28;20068;-63
2022/12/23 08:26:11;;;;;;;25.50;12.98;;;;;;;6.71;100.00;99619.44;5001044;28;20049;-62
2022/12/23 08:28:40;;;;;;;26.00;13.68;;;;;;;6.71;100.00;99616.81;4993458;28;20058;-63
2022/12/23 08:31:19;;;;;;;27.85;14.05;;;;;;;6.72;100.00;99618.53;4989835;28;20178;-64
2022/12/23 08:33:48;;;;;;;29.90;14.40;;;;;;;6.69;100.00;99623.91;4992273;28;20177;-63
2022/12/23 08:36:21;;;;;;;20.65;10.90;;;;;;;6.72;100.00;99627.22;5007546;28;20052;-63
2022/12/23 08:38:52;;;;;;;25.75;11.68;;;;;;;6.69;100.00;99613.47;4988308;28;20046;-64
2022/12/23 08:41:23;;;;;;;24.75;12.93;;;;;;;6.67;100.00;99624.03;4992239;28;20380;-64
2022/12/23 08:43:50;;;;;;;24.92;12.63;;;;;;;6.66;100.00;99613.63;4990668;28;20058;-63
2022/12/23 08:46:18;;;;;;;25.45;11.98;;;;;;;6.69;100.00;99614.31;4987523;28;20130;-64
2022/12/23 08:48:45;;;;;;;24.45;11.75;;;;;;;6.69;100.00;99613.47;4992405;28;20591;-64
2022/12/23 08:51:17;;;;;;;26.60;13.02;;;;;;;6.73;100.00;99617.59;4987480;28;20073;-63
2022/12/23 08:53:45;;;;;;;31.70;14.90;;;;;;;6.69;100.00;99622.16;4990827;28;20464;-63
2022/12/23 08:56:16;;;;;;;30.75;13.70;;;;;;;6.65;100.00;99623.25;4990879;28;20507;-63
2022/12/23 08:58:45;;;;;;;26.75;12.73;;;;;;;6.64;100.00;99625.97;4983696;28;20046;-63
2022/12/23 09:01:14;;;;;;;26.30;12.63;;;;;;;6.66;100.00;99626.72;4996770;28;20129;-63
2022/12/23 09:03:42;;;;;;;27.38;12.90;;;;;;;6.75;100.00;99639.25;5000514;28;20582;-63
2022/12/23 09:06:15;;;;;;;25.10;11.77;;;;;;;6.79;100.00;99625.91;4995384;28;20085;-64
2022/12/23 09:08:42;;;;;;;25.67;12.52;;;;;;;6.77;100.00;99634.78;4968213;28;20050;-64
2022/12/23 09:11:15;;;;;;;23.02;12.15;;;;;;;6.78;100.00;99655.59;4995262;28;20145;-64
2022/12/23 09:13:43;;;;;;;22.55;11.05;;;;;;;6.71;100.00;99661.28;4984503;28;20053;-63
2022/12/23 09:16:10;;;;;;;22.77;11.13;;;;;;;6.71;100.00;99662.16;4990806;28;20064;-63
2022/12/23 09:18:37;;;;;;;24.15;11.65;;;;;;;6.68;100.00;99664.09;4989317;28;20091;-63
2022/12/23 09:21:09;;;;;;;28.98;13.40;;;;;;;6.68;100.00;99664.94;4997040;28;20057;-64
2022/12/23 09:23:36;;;;;;;25.13;12.77;;;;;;;6.68;100.00;99664.94;4980546;28;20066;-63
2022/12/23 09:26:05;;;;;;;27.55;13.43;;;;;;;6.72;100.00;99666.44;5005110;28;20046;-63
2022/12/23 09:28:32;;;;;;;32.67;15.32;;;;;;;6.71;100.00;99672.63;4992067;28;20050;-63
2022/12/23 09:31:07;;;;;;;29.13;14.95;;;;;;;6.68;100.00;99680.63;5004932;28;20132;-64
2022/12/23 09:33:35;;;;;;;32.58;15.35;;;;;;;6.77;100.00;99674.03;4999816;28;20200;-62
2022/12/23 09:36:03;;;;;;;30.55;15.27;;;;;;;6.74;100.00;99685.50;4999888;28;20142;-62
2022/12/23 09:38:31;;;;;;;30.98;14.98;;;;;;;6.72;100.00;99697.00;5000375;28;20054;-62
2022/12/23 09:41:26;;;;;;;33.60;14.75;;;;;;;6.79;100.00;99704.38;4988089;28;20054;-63
2022/12/23 09:44:18;;;;;;;34.03;15.55;;;;;;;6.70;100.00;99715.38;4996433;28;20117;-63
2022/12/23 09:46:54;;;;;;;30.33;14.80;;;;;;;6.70;100.00;99717.13;5002186;28;20156;-64
2022/12/23 09:49:22;;;;;;;36.22;16.77;;;;;;;6.67;100.00;99722.56;5003066;28;20134;-63
2022/12/23 09:51:52;;;;;;;36.80;16.90;;;;;;;6.66;100.00;99716.47;5003901;28;20060;-64
2022/12/23 09:54:22;;;;;;;36.95;16.73;;;;;;;6.64;100.00;99720.97;4991566;28;20046;-63
2022/12/23 09:57:11;;;;;;;35.15;16.40;;;;;;;6.67;100.00;99725.19;4981170;28;20054;-63
2022/12/23 10:00:00;;;;;;;35.97;16.30;;;;;;;6.63;100.00;99731.53;5001292;28;20054;-63
2022/12/23 10:02:37;;;;;;;31.42;15.05;;;;;;;6.65;100.00;99734.88;4993824;28;20149;-63
2022/12/23 10:05:26;;;;;;;31.15;14.80;;;;;;;6.66;100.00;99734.78;5004669;28;20527;-63
2022/12/23 10:08:03;;;;;;;29.05;13.45;;;;;;;6.69;100.00;99734.59;4992530;28;20088;-63
2022/12/23 10:10:34;;;;;;;23.70;11.20;;;;;;;6.68;100.00;99737.31;4971565;28;20054;-63
2022/12/23 10:13:04;;;;;;;24.20;11.82;;;;;;;6.66;100.00;99740.00;4994739;28;20057;-64
2022/12/23 10:15:41;;;;;;;27.35;11.40;;;;;;;6.66;100.00;99739.16;5001332;28;20055;-63
2022/12/23 10:18:19;;;;;;;21.02;11.48;;;;;;;6.67;100.00;99738.25;4980778;28;20059;-64
2022/12/23 10:20:51;;;;;;;26.30;13.40;;;;;;;6.68;100.00;99738.16;4982952;28;20145;-63
2022/12/23 10:23:27;;;;;;;25.45;12.45;;;;;;;6.66;100.00;99734.78;4986622;28;20054;-64
2022/12/23 10:25:54;;;;;;;;;;;;;;;6.65;100.00;99740.09;4986893;28;20073;-62
2022/12/23 10:28:21;;;;;;;30.30;13.77;;;;;;;6.66;100.00;99739.16;4995162;28;19922;-63
2022/12/23 10:31:04;;;;;;;36.17;17.77;;;;;;;6.68;100.00;99725.09;4995894;28;20451;-64
2022/12/23 10:34:01;;;;;;;35.83;16.58;;;;;;;6.73;100.00;99735.28;4994904;28;20054;-63
2022/12/23 10:36:54;;;;;;;33.17;17.17;;;;;;;6.74;100.00;99734.34;4977967;28;20414;-63
2022/12/23 10:39:35;;;;;;;38.55;17.65;;;;;;;6.74;100.00;99726.50;4994523;28;20046;-63
2022/12/23 10:42:09;;;;;;;33.38;16.63;;;;;;;6.77;100.00;99726.34;4999092;28;20050;-64
2022/12/23 10:44:58;;;;;;;28.58;15.70;;;;;;;6.81;100.00;99718.22;4986920;28;20213;-64
2022/12/23 10:47:37;;;;;;;33.70;17.35;;;;;;;6.92;100.00;99720.19;4981125;28;20232;-64
2022/12/23 10:50:35;;;;;;;30.75;16.35;;;;;;;6.97;100.00;99718.16;4983985;28;20135;-64
2022/12/23 10:53:06;;;;;;;35.38;16.33;;;;;;;7.02;100.00;99721.34;4982249;28;20474;-63
2022/12/23 10:55:37;;;;;;;32.22;16.83;;;;;;;7.01;100.00;99722.28;4977958;28;20603;-64
2022/12/23 10:58:17;;;;;;;29.15;14.50;;;;;;;6.99;100.00;99732.00;4987206;28;20050;-64
2022/12/23 11:00:51;;;;;;;27.27;13.32;;;;;;;6.94;100.00;99735.84;4996866;28;20063;-64
2022/12/23 11:03:40;;;;;;;24.50;12.93;;;;;;;6.94;100.00;99736.69;4978552;28;20136;-63
2022/12/23 11:06:08;;;;;;;25.83;13.93;;;;;;;7.01;100.00;99735.38;4981876;28;20531;-63
2022/12/23 11:08:37;;;;;;;25.52;13.32;;;;;;;7.02;100.00;99737.03;4980948;28;20050;-63
2022/12/23 11:11:06;;;;;;;22.30;12.75;;;;;;;7.01;100.00;99735.38;5002007;28;20579;-63
2022/12/23 11:13:41;;;;;;;20.33;12.73;;;;;;;7.02;100.00;99734.44;4978854;28;20077;-64
2022/12/23 11:16:14;;;;;;;20.80;12.35;;;;;;;7.01;100.00;99737.13;4995182;28;20404;-63
2022/12/23 11:18:56;;;;;;;21.85;12.27;;;;;;;7.03;100.00;99743.16;5008270;28;20053;-63
2022/12/23 11:21:24;;;;;;;20.88;12.20;;;;;;;7.02;100.00;99744.91;4989722;28;20063;-63
2022/12/23 11:24:18;;;;;;;18.88;11.18;;;;;;;7.05;100.00;99734.25;4991207;28;20499;-63
2022/12/23 11:26:48;;;;;;;18.38;11.38;;;;;;;7.07;100.00;99740.25;5024248;23;21388;-64
2022/12/23 11:29:24;;;;;;;17.13;10.13;;;;;;;7.03;100.00;99741.38;5012644;28;20053;-65
2022/12/23 11:31:51;;;;;;;18.42;10.15;;;;;;;7.05;100.00;99736.03;5031460;28;20135;-65
2022/12/23 11:34:21;;;;;;;17.40;9.55;;;;;;;7.01;100.00;99731.91;5044710;28;20057;-65
2022/12/23 11:36:53;;;;;;;17.20;10.70;;;;;;;6.97;100.00;99739.09;5023939;28;20048;-64
2022/12/23 11:39:32;;;;;;;16.15;9.95;;;;;;;6.98;100.00;99745.16;5021896;28;20046;-64
2022/12/23 11:42:17;;;;;;;14.93;9.80;;;;;;;6.98;100.00;99747.78;5007953;28;20049;-64
2022/12/23 11:44:49;;;;;;;16.13;10.32;;;;;;;6.96;100.00;99747.88;5029610;28;20061;-64
2022/12/23 11:47:22;;;;;;;14.85;10.05;;;;;;;7.03;100.00;99749.22;5011667;28;20418;-64
2022/12/23 11:49:54;;;;;;;16.50;11.60;;;;;;;7.02;100.00;99754.53;5029744;28;20949;-64
2022/12/23 11:52:29;;;;;;;18.92;11.63;;;;;;;7.04;100.00;99765.75;5028002;28;20151;-64
2022/12/23 11:54:59;;;;;;;17.63;11.57;;;;;;;7.08;100.00;99765.50;5026431;28;20137;-64
2022/12/23 11:57:39;;;;;;;20.00;13.05;;;;;;;7.09;100.00;99763.72;5002516;28;20050;-64
2022/12/23 12:00:19;;;;;;;18.92;12.85;;;;;;;7.14;100.00;99764.28;5017919;28;20051;-64
2022/12/23 12:02:49;;;;;;;18.27;12.40;;;;;;;7.10;100.00;99761.00;5015617;28;20057;-65